Time;durP1;ratioP1;P1;durP2;ratioP2;P2;SDS_P1;SDS_P2;PMS_P1;PMS_P2;Temp;Humidity;BMP_temperature;BMP_pressure;BME280_temperature;BME280_humidity;BME280_pressure;Samples;Min_cycle;Max_cycle;Signal;HPM_P1;HPM_P2
2022/01/20 00:02:07;;;;;;;;;;;2.50;99.90;;;;;;6200918;22;19915;-89
2022/01/20 00:04:45;;;;;;;;;;;2.60;99.90;;;;;;6200018;22;19919;-87
2022/01/20 00:07:40;;;;;;;;;;;2.60;99.90;;;;;;6202025;22;20243;-88
2022/01/20 00:26:24;;;;;;;;;;;5.10;99.90;;;;;;6226611;22;20377;-87
2022/01/20 00:28:57;;;;;;;;;;;3.60;99.90;;;;;;6200173;22;19930;-89
2022/01/20 00:31:43;;;;;;;;;;;4.50;99.90;;;;;;6226166;22;19990;-87
2022/01/20 00:34:13;;;;;;;;;;;3.20;99.90;;;;;;6203321;22;20312;-88
2022/01/20 00:39:23;;;;;;;;;;;2.70;99.90;;;;;;6229053;22;20224;-88
2022/01/20 00:41:48;;;;;;;;;;;2.60;99.90;;;;;;6199571;22;19994;-88
2022/01/20 00:44:16;;;;;;;;;;;3.60;99.90;;;;;;6199507;22;19926;-88
2022/01/20 00:46:44;;;;;;;;;;;3.90;99.90;;;;;;6199688;22;19994;-90
2022/01/20 00:49:09;;;;;;;;;;;3.40;99.90;;;;;;6199781;22;19919;-88
2022/01/20 00:51:35;;;;;;;;;;;2.60;99.90;;;;;;6199172;22;19994;-88
2022/01/20 00:54:01;;;;;;;;;;;2.80;99.90;;;;;;6198994;22;19994;-88
2022/01/20 00:56:30;;;;;;;;;;;2.80;99.90;;;;;;6199035;22;19922;-89
2022/01/20 00:58:56;;;;;;;;;;;2.60;99.90;;;;;;6199513;22;20303;-88
2022/01/20 01:01:23;;;;;;;;;;;3.30;99.90;;;;;;6199255;22;19920;-88
2022/01/20 01:03:51;;;;;;;;;;;1.60;99.90;;;;;;6199021;22;19919;-88
2022/01/20 01:08:47;;;;;;;;;;;2.90;99.90;;;;;;6224013;22;19915;-90
2022/01/20 01:11:13;;;;;;;;;;;4.70;99.90;;;;;;6199762;22;19915;-88
2022/01/20 01:13:38;;;;;;;;;;;2.70;99.90;;;;;;6199007;22;20303;-90
2022/01/20 01:16:10;;;;;;;;;;;3.50;99.90;;;;;;6200378;22;19915;-89
2022/01/20 01:21:40;;;;;;;;;;;3.90;99.90;;;;;;6228421;22;19919;-89
2022/01/20 01:24:13;;;;;;;;;;;3.80;99.90;;;;;;6202865;22;19919;-89
2022/01/20 01:26:41;;;;;;;;;;;3.20;99.90;;;;;;6224431;22;19915;-89
2022/01/20 01:29:24;;;;;;;;;;;4.60;99.90;;;;;;6199833;22;19915;-88
2022/01/20 01:31:50;;;;;;;;;;;3.70;99.90;;;;;;6224591;22;20339;-88
2022/01/20 01:34:17;;;;;;;;;;;3.70;99.90;;;;;;6199487;22;19915;-88
2022/01/20 01:37:02;;;;;;;;;;;3.10;99.90;;;;;;6199099;22;19969;-88
2022/01/20 01:39:28;;;;;;;;;;;3.80;99.90;;;;;;6197805;23;20347;-88
2022/01/20 01:41:56;;;;;;;;;;;4.20;99.90;;;;;;6194151;23;19916;-88
2022/01/20 01:44:25;;;;;;;;;;;3.80;99.90;;;;;;6194666;23;20003;-88
2022/01/20 01:46:51;;;;;;;;;;;3.40;99.90;;;;;;6195287;23;19923;-87
2022/01/20 01:49:17;;;;;;;;;;;2.80;99.90;;;;;;6194088;23;19977;-88
2022/01/20 01:51:43;;;;;;;;;;;2.70;99.90;;;;;;6195534;23;19922;-88
2022/01/20 01:54:10;;;;;;;;;;;3.10;99.90;;;;;;6195666;23;19951;-88
2022/01/20 01:56:38;;;;;;;;;;;1.90;99.90;;;;;;6195756;23;19915;-88
2022/01/20 01:59:06;;;;;;;;;;;2.40;99.90;;;;;;6195902;23;19916;-88
2022/01/20 02:01:41;;;;;;;;;;;2.70;99.90;;;;;;6196035;23;19919;-88
2022/01/20 02:04:19;;;;;;;;;;;2.70;99.90;;;;;;6198111;23;19919;-88
2022/01/20 02:17:50;;;;;;;;;;;3.30;99.90;;;;;;6224536;23;19922;-88
2022/01/20 02:20:40;;;;;;;;;;;4.00;99.90;;;;;;6224367;23;19920;-87
2022/01/20 02:23:05;;;;;;;;;;;3.10;99.90;;;;;;6220414;23;20005;-89
2022/01/20 02:25:32;;;;;;;;;;;2.90;99.90;;;;;;6195467;23;20383;-87
2022/01/20 02:28:00;;;;;;;;;;;4.00;99.90;;;;;;6195549;23;19916;-88
2022/01/20 02:30:28;;;;;;;;;;;4.60;99.90;;;;;;6195662;23;20324;-88
2022/01/20 02:32:58;;;;;;;;;;;4.00;99.90;;;;;;6195908;23;20398;-88
2022/01/20 02:35:26;;;;;;;;;;;4.00;99.90;;;;;;6195336;23;19922;-88
2022/01/20 02:37:58;;;;;;;;;;;3.60;99.90;;;;;;6196405;23;19920;-87
2022/01/20 02:45:40;;;;;;;;;;;3.70;99.90;;;;;;6225053;23;19915;-89
2022/01/20 02:48:06;;;;;;;;;;;3.50;99.90;;;;;;6195334;23;19951;-88
2022/01/20 02:50:31;;;;;;;;;;;3.40;99.90;;;;;;6195036;23;19927;-88
2022/01/20 02:52:57;;;;;;;;;;;3.90;99.90;;;;;;6195486;23;19969;-87
2022/01/20 02:55:22;;;;;;;;;;;3.10;99.90;;;;;;6195403;23;19937;-87
2022/01/20 02:57:48;;;;;;;;;;;3.20;99.90;;;;;;6195517;23;19938;-88
2022/01/20 03:00:13;;;;;;;;;;;3.40;99.90;;;;;;6220250;23;19986;-87
2022/01/20 03:02:41;;;;;;;;;;;2.70;99.90;;;;;;6220016;23;19919;-87
2022/01/20 03:05:07;;;;;;;;;;;3.90;99.90;;;;;;6195524;23;19955;-87
2022/01/20 03:07:32;;;;;;;;;;;2.60;99.90;;;;;;6195055;23;19970;-88
2022/01/20 03:09:58;;;;;;;;;;;3.00;99.90;;;;;;6195453;23;20400;-87
2022/01/20 03:12:23;;;;;;;;;;;2.50;99.90;;;;;;6220106;23;19982;-88
2022/01/20 03:14:49;;;;;;;;;;;2.50;99.90;;;;;;6195442;23;19915;-87
2022/01/20 03:17:17;;;;;;;;;;;1.80;99.90;;;;;;6194895;23;19916;-88
2022/01/20 03:19:45;;;;;;;;;;;3.30;99.90;;;;;;6220098;23;20030;-88
2022/01/20 03:22:11;;;;;;;;;;;3.90;99.90;;;;;;6195308;23;20225;-87
2022/01/20 03:24:36;;;;;;;;;;;3.90;99.90;;;;;;6219759;23;19971;-87
2022/01/20 03:27:02;;;;;;;;;;;3.80;99.90;;;;;;6195422;23;20380;-88
2022/01/20 03:29:27;;;;;;;;;;;2.70;99.90;;;;;;6194631;23;19947;-89
2022/01/20 03:31:53;;;;;;;;;;;2.60;99.90;;;;;;6194719;23;19915;-88
2022/01/20 03:34:21;;;;;;;;;;;3.10;99.90;;;;;;6194903;23;19916;-89
2022/01/20 03:36:47;;;;;;;;;;;2.70;99.90;;;;;;6195280;23;19994;-89
2022/01/20 03:39:13;;;;;;;;;;;2.80;99.90;;;;;;6199085;22;20036;-86
2022/01/20 03:41:38;;;;;;;;;;;3.10;99.90;;;;;;6225260;22;19922;-88
2022/01/20 03:44:04;;;;;;;;;;;3.10;99.90;;;;;;6224652;22;19990;-88
2022/01/20 03:46:29;;;;;;;;;;;2.50;99.90;;;;;;6200341;22;19954;-87
2022/01/20 03:49:06;;;;;;;;;;;3.30;99.90;;;;;;6199648;22;19922;-88
2022/01/20 03:51:31;;;;;;;;;;;3.40;99.90;;;;;;6202048;22;19924;-88
2022/01/20 03:53:58;;;;;;;;;;;2.20;99.90;;;;;;6224596;22;19919;-87
2022/01/20 03:56:23;;;;;;;;;;;2.90;99.90;;;;;;6224802;22;20251;-88
2022/01/20 03:58:49;;;;;;;;;;;3.90;99.90;;;;;;6200062;22;19916;-88
2022/01/20 04:01:15;;;;;;;;;;;3.10;99.90;;;;;;6199833;22;19915;-86
2022/01/20 04:03:42;;;;;;;;;;;2.00;99.90;;;;;;6200249;22;19919;-88
2022/01/20 04:06:08;;;;;;;;;;;2.70;99.90;;;;;;6200032;22;19919;-88
2022/01/20 04:08:35;;;;;;;;;;;2.60;99.90;;;;;;6199607;22;19922;-87
2022/01/20 04:11:02;;;;;;;;;;;1.40;99.90;;;;;;6224640;22;19929;-88
2022/01/20 04:13:31;;;;;;;;;;;1.50;99.90;;;;;;6199842;22;20002;-89
2022/01/20 04:16:17;;;;;;;;;;;2.10;99.90;;;;;;6200790;22;19915;-90
2022/01/20 04:18:52;;;;;;;;;;;2.20;99.90;;;;;;6204400;22;19915;-89
2022/01/20 04:21:18;;;;;;;;;;;2.30;99.90;;;;;;6201511;22;19915;-88
2022/01/20 04:23:44;;;;;;;;;;;1.60;99.90;;;;;;6199555;22;19919;-89
2022/01/20 04:26:09;;;;;;;;;;;1.80;99.90;;;;;;6224957;22;19915;-88
2022/01/20 04:28:37;;;;;;;;;;;1.40;99.90;;;;;;6224810;22;19915;-87
2022/01/20 04:31:08;;;;;;;;;;;1.40;99.90;;;;;;6225282;22;19954;-88
2022/01/20 04:33:34;;;;;;;;;;;1.60;99.90;;;;;;6225993;22;19915;-88
2022/01/20 04:36:09;;;;;;;;;;;;;;;;;;;;;
2022/01/20 04:38:35;;;;;;;;;;;1.10;99.90;;;;;;6227051;22;20320;-89
2022/01/20 04:41:01;;;;;;;;;;;0.90;99.90;;;;;;6224822;22;19919;-89
2022/01/20 04:43:32;;;;;;;;;;;1.10;99.90;;;;;;6224858;22;19994;-87
2022/01/20 04:46:26;;;;;;;;;;;0.20;99.90;;;;;;6200028;22;19915;-89
2022/01/20 04:59:55;;;;;;;;;;;2.60;99.90;;;;;;6231570;22;19937;-90
2022/01/20 05:02:26;;;;;;;;;;;1.30;99.90;;;;;;6225684;22;19922;-90
2022/01/20 05:04:54;;;;;;;;;;;2.00;99.90;;;;;;6200854;22;19942;-89
2022/01/20 05:07:24;;;;;;;;;;;1.80;99.90;;;;;;6200306;22;19916;-88
2022/01/20 05:09:51;;;;;;;;;;;1.10;99.90;;;;;;6225683;22;19947;-89
2022/01/20 05:12:38;;;;;;;;;;;2.20;99.90;;;;;;6200447;22;19948;-89
2022/01/20 05:15:11;;;;;;;;;;;2.30;99.90;;;;;;6202625;22;20294;-89
2022/01/20 05:17:39;;;;;;;;;;;0.70;99.90;;;;;;6199637;22;19992;-90
2022/01/20 05:20:05;;;;;;;;;;;3.10;99.90;;;;;;6199759;22;19977;-88
2022/01/20 05:22:31;;;;;;;;;;;1.60;99.90;;;;;;6199957;22;19915;-88
2022/01/20 05:24:59;;;;;;;;;;;3.20;99.90;;;;;;6199826;22;19922;-90
2022/01/20 05:27:25;;;;;;;;;;;1.60;99.90;;;;;;6202549;22;19915;-88
2022/01/20 05:29:59;;;;;;;;;;;2.40;99.90;;;;;;6201561;22;19958;-90
2022/01/20 05:32:25;;;;;;;;;;;1.80;99.90;;;;;;6203461;22;19916;-90
2022/01/20 05:34:53;;;;;;;;;;;1.50;99.90;;;;;;6201279;22;19915;-89
2022/01/20 05:37:19;;;;;;;;;;;2.30;99.90;;;;;;6201737;22;19955;-89
2022/01/20 05:39:52;;;;;;;;;;;3.60;99.90;;;;;;6201662;22;19919;-89
2022/01/20 05:42:17;;;;;;;;;;;1.30;99.90;;;;;;6201906;22;20295;-88
2022/01/20 05:44:50;;;;;;;;;;;1.30;99.90;;;;;;6201322;22;19919;-89
2022/01/20 05:47:18;;;;;;;;;;;1.50;99.90;;;;;;6203402;22;19923;-89
2022/01/20 05:49:44;;;;;;;;;;;1.20;99.90;;;;;;6226951;22;19916;-89
2022/01/20 05:52:09;;;;;;;;;;;2.10;99.90;;;;;;6226670;22;20334;-90
2022/01/20 05:54:42;;;;;;;;;;;1.90;99.90;;;;;;6201222;22;19916;-89
2022/01/20 05:57:11;;;;;;;;;;;1.00;99.90;;;;;;6202903;22;19921;-89
2022/01/20 05:59:54;;;;;;;;;;;;;;;;;;;;;
2022/01/20 06:05:21;;;;;;;;;;;1.40;99.90;;;;;;6170034;22;20308;-90
2022/01/20 06:07:57;;;;;;;;;;;1.00;99.90;;;;;;6205333;22;20387;-90
2022/01/20 06:10:31;;;;;;;;;;;0.70;99.90;;;;;;6202801;22;20013;-90
2022/01/20 06:13:19;;;;;;;;;;;1.10;99.90;;;;;;6201148;22;19968;-89
2022/01/20 06:15:59;;;;;;;;;;;1.50;99.90;;;;;;6245533;22;20311;-90
2022/01/20 06:18:28;;;;;;;;;;;2.70;99.90;;;;;;6202544;22;20255;-88
2022/01/20 06:20:58;;;;;;;;;;;1.60;99.90;;;;;;6226249;22;19916;-89
2022/01/20 06:23:27;;;;;;;;;;;2.10;99.90;;;;;;6201633;22;20017;-90
2022/01/20 06:26:04;;;;;;;;;;;;;;;;;;;;;
2022/01/20 06:28:34;;;;;;;;;;;2.50;99.90;;;;;;6228529;22;19915;-88
2022/01/20 06:30:59;;;;;;;;;;;1.40;99.90;;;;;;6200727;22;19969;-90
2022/01/20 06:33:32;;;;;;;;;;;1.30;99.90;;;;;;6201011;22;19915;-88
2022/01/20 06:35:59;;;;;;;;;;;1.40;99.90;;;;;;6202324;22;19919;-90
2022/01/20 06:38:58;;;;;;;;;;;;;;;;;;;;;
2022/01/20 06:41:12;;;;;;;;;;;1.20;99.90;;;;;;6218017;23;20001;-89
2022/01/20 06:43:40;;;;;;;;;;;3.20;99.90;;;;;;6196038;23;19919;-90
2022/01/20 06:46:11;;;;;;;;;;;1.70;99.90;;;;;;6196485;23;19915;-89
2022/01/20 06:48:36;;;;;;;;;;;4.20;99.90;;;;;;6197211;23;19916;-91
2022/01/20 06:51:04;;;;;;;;;;;2.20;99.90;;;;;;6196061;23;19919;-90
2022/01/20 06:53:30;;;;;;;;;;;1.70;99.90;;;;;;6196182;23;20001;-90
2022/01/20 06:56:01;;;;;;;;;;;3.30;99.90;;;;;;6220957;23;19919;-89
2022/01/20 06:58:32;;;;;;;;;;;1.90;99.90;;;;;;6196319;22;19916;-90
2022/01/20 07:00:57;;;;;;;;;;;1.30;99.90;;;;;;6196836;23;19915;-89
2022/01/20 07:03:29;;;;;;;;;;;1.50;99.90;;;;;;6195949;23;19920;-90
2022/01/20 07:06:09;;;;;;;;;;;;;;;;;;;;;
2022/01/20 07:08:35;;;;;;;;;;;2.60;99.90;;;;;;6246016;22;20332;-90
2022/01/20 07:11:06;;;;;;;;;;;1.50;99.90;;;;;;6196891;23;20080;-90
2022/01/20 07:13:37;;;;;;;;;;;1.60;99.90;;;;;;6195618;23;19926;-90
2022/01/20 07:16:02;;;;;;;;;;;1.60;99.90;;;;;;6196363;23;19966;-91
2022/01/20 07:18:30;;;;;;;;;;;0.90;99.90;;;;;;6195945;22;19916;-90
2022/01/20 07:20:58;;;;;;;;;;;1.10;99.90;;;;;;6196151;23;19915;-89
2022/01/20 07:23:34;;;;;;;;;;;2.10;99.90;;;;;;6195643;23;19920;-90
2022/01/20 07:26:02;;;;;;;;;;;0.90;99.90;;;;;;6196896;23;19916;-89
2022/01/20 07:28:37;;;;;;;;;;;1.00;99.90;;;;;;6195542;22;19923;-91
2022/01/20 07:31:32;;;;;;;;;;;0.70;99.90;;;;;;6196337;23;19923;-89
2022/01/20 07:34:00;;;;;;;;;;;1.00;99.90;;;;;;6221120;23;19915;-90
2022/01/20 07:39:34;;;;;;;;;;;1.10;99.90;;;;;;6245219;22;19962;-90
2022/01/20 07:44:49;;;;;;;;;;;1.40;99.90;;;;;;6224463;23;20320;-90
2022/01/20 07:47:15;;;;;;;;;;;1.50;99.90;;;;;;6195147;23;19990;-90
2022/01/20 07:49:53;;;;;;;;;;;0.80;99.90;;;;;;6220324;23;20316;-90
2022/01/20 07:52:28;;;;;;;;;;;1.80;99.90;;;;;;6195916;23;20325;-90
2022/01/20 07:54:56;;;;;;;;;;;1.50;99.90;;;;;;6195502;23;19916;-89
2022/01/20 07:57:33;;;;;;;;;;;0.60;99.90;;;;;;6194626;23;20332;-90
2022/01/20 08:00:17;;;;;;;;;;;0.90;99.90;;;;;;6195847;23;19922;-91
2022/01/20 08:03:01;;;;;;;;;;;;;;;;;;;;;
2022/01/20 08:05:54;;;;;;;;;;;1.10;99.90;;;;;;6227896;23;19920;-91
2022/01/20 08:08:50;;;;;;;;;;;;;;;;;;;;;
2022/01/20 08:27:54;;;;;;;;;;;;;;;;;;;;;
2022/01/20 08:36:56;;;;;;;;;;;;;;;;;;;;;
2022/01/20 08:40:04;;;;;;;;;;;;;;;;;;;;;
2022/01/20 08:49:22;;;;;;;;;;;1.50;99.90;;;;;;6145275;23;19920;-92
2022/01/20 08:51:51;;;;;;;;;;;2.00;99.90;;;;;;6161927;23;19916;-91
2022/01/20 08:58:10;;;;;;;;;;;;;;;;;;;;;
2022/01/20 09:00:38;;;;;;;;;;;1.90;99.90;;;;;;6248328;23;19938;-92
2022/01/20 09:03:06;;;;;;;;;;;2.40;99.90;;;;;;6198195;23;19942;-91
2022/01/20 09:06:08;;;;;;;;;;;;;;;;;;;;;
2022/01/20 09:08:39;;;;;;;;;;;3.50;99.90;;;;;;6243098;22;19915;-92
2022/01/20 09:11:38;;;;;;;;;;;3.20;99.90;;;;;;6196764;23;19919;-91
2022/01/20 09:20:47;;;;;;;;;;;;;;;;;;;;;
2022/01/20 09:27:22;;;;;;;;;;;;;;;;;;;;;
2022/01/20 09:29:47;;;;;;;;;;;;;;;;;;;;;
2022/01/20 09:32:39;;;;;;;;;;;1.30;99.90;;;;;;6224617;23;19922;-91
2022/01/20 09:35:34;;;;;;;;;;;3.50;99.90;;;;;;6222603;23;20279;-91
2022/01/20 09:38:32;;;;;;;;;;;;;;;;;;;;;
2022/01/20 09:41:29;;;;;;;;;;;;;;;;;;;;;
2022/01/20 09:44:47;;;;;;;;;;;;;;;;;;;;;
2022/01/20 09:50:49;;;;;;;;;;;2.40;99.90;;;;;;6226423;23;20364;-92
2022/01/20 09:57:09;;;;;;;;;;;;;;;;;;;;;
2022/01/20 10:06:48;;;;;;;;;;;2.40;99.90;;;;;;6148920;23;19916;-92
2022/01/20 10:25:43;;;;;;;;;;;3.50;99.90;;;;;;5982395;24;19945;-94
2022/01/20 10:31:19;;;;;;;;;;;;;;;;;;;;;
2022/01/20 10:34:03;;;;;;;;;;;;;;;;;;;;;
2022/01/20 10:37:00;;;;;;;;;;;;;;;;;;;;;
2022/01/20 10:43:03;;;;;;;;;;;5.00;99.90;;;;;;6074408;23;19961;-91
2022/01/20 10:46:05;;;;;;;;;;;;;;;;;;;;;
2022/01/20 10:54:48;;;;;;;;;;;4.90;99.90;;;;;;6213000;23;20382;-92
2022/01/20 11:01:07;;;;;;;;;;;;;;;;;;;;;
2022/01/20 11:07:39;;;;;;;;;;;;;;;;;;;;;
2022/01/20 11:13:38;;;;;;;;;;;;;;;;;;;;;
2022/01/20 11:16:42;;;;;;;;;;;;;;;;;;;;;
2022/01/20 11:26:37;;;;;;;;;;;;;;;;;;;;;
2022/01/20 11:29:31;;;;;;;;;;;6.20;99.90;;;;;;6036473;23;19918;-92
2022/01/20 11:32:37;;;;;;;;;;;;;;;;;;;;;
2022/01/20 11:35:24;;;;;;;;;;;;;;;;;;;;;
2022/01/20 11:41:04;;;;;;;;;;;2.80;99.90;;;;;;6194783;23;19991;-90
2022/01/20 11:44:04;;;;;;;;;;;;;;;;;;;;;
2022/01/20 11:46:58;;;;;;;;;;;4.00;99.90;;;;;;6237919;23;19915;-91
2022/01/20 11:49:53;;;;;;;;;;;4.20;99.90;;;;;;6219191;23;19916;-91
2022/01/20 11:52:23;;;;;;;;;;;4.10;99.90;;;;;;6219368;23;19916;-87
2022/01/20 11:54:48;;;;;;;;;;;3.70;99.90;;;;;;6193594;23;19969;-88
2022/01/20 11:57:30;;;;;;;;;;;3.50;99.90;;;;;;6193762;23;19924;-88
2022/01/20 12:00:07;;;;;;;;;;;;;;;;;;;;;
2022/01/20 12:02:36;;;;;;;;;;;3.40;99.90;;;;;;6220815;23;20022;-89
2022/01/20 12:05:05;;;;;;;;;;;2.40;99.90;;;;;;6218728;23;20317;-90
2022/01/20 12:07:36;;;;;;;;;;;2.70;99.90;;;;;;6193923;23;19920;-90
2022/01/20 12:10:05;;;;;;;;;;;2.60;99.90;;;;;;6194286;23;19937;-89
2022/01/20 12:12:32;;;;;;;;;;;3.00;99.90;;;;;;6218457;23;19990;-89
2022/01/20 12:15:07;;;;;;;;;;;3.90;99.90;;;;;;6193920;23;19922;-90
2022/01/20 12:17:33;;;;;;;;;;;3.00;99.90;;;;;;6194304;23;19970;-90
2022/01/20 12:19:58;;;;;;;;;;;4.70;99.90;;;;;;6193481;23;19916;-89
2022/01/20 12:22:33;;;;;;;;;;;3.80;99.90;;;;;;6193577;23;19915;-91
2022/01/20 12:25:04;;;;;;;;;;;4.10;99.90;;;;;;6194883;23;19970;-92
2022/01/20 12:27:32;;;;;;;;;;;3.80;99.90;;;;;;6194810;23;19941;-89
2022/01/20 12:30:08;;;;;;;;;;;4.20;99.90;;;;;;6194625;23;20248;-89
2022/01/20 12:32:36;;;;;;;;;;;3.10;99.90;;;;;;6194749;23;19922;-90
2022/01/20 12:35:12;;;;;;;;;;;;;;;;;;;;;
2022/01/20 12:40:29;;;;;;;;;;;4.00;99.90;;;;;;6206413;23;20258;-91
2022/01/20 12:42:57;;;;;;;;;;;2.70;99.90;;;;;;6194473;23;19915;-90
2022/01/20 12:48:51;;;;;;;;;;;4.80;99.90;;;;;;6248401;22;19915;-92
2022/01/20 12:51:18;;;;;;;;;;;2.80;99.90;;;;;;6242339;23;20158;-91
2022/01/20 12:54:04;;;;;;;;;;;;;;;;;;;;;
2022/01/20 12:56:49;;;;;;;;;;;2.40;99.90;;;;;;6223821;23;19927;-92
2022/01/20 12:59:20;;;;;;;;;;;3.60;99.90;;;;;;6195974;23;19916;-90
2022/01/20 13:02:22;;;;;;;;;;;;;;;;;;;;;
2022/01/20 13:04:58;;;;;;;;;;;3.00;99.90;;;;;;6244469;23;19920;-92
2022/01/20 13:08:00;;;;;;;;;;;;;;;;;;;;;
2022/01/20 13:10:48;;;;;;;;;;;3.40;99.90;;;;;;6237224;23;19961;-92
2022/01/20 13:19:08;;;;;;;;;;;3.30;99.90;;;;;;6202839;23;19923;-92
2022/01/20 13:21:53;;;;;;;;;;;3.00;99.90;;;;;;6195181;23;19919;-91
2022/01/20 13:24:26;;;;;;;;;;;3.50;99.90;;;;;;6194923;23;20388;-92
2022/01/20 13:26:54;;;;;;;;;;;3.60;99.90;;;;;;6193954;23;20113;-91
2022/01/20 13:29:43;;;;;;;;;;;3.90;99.90;;;;;;6195775;23;19922;-90
2022/01/20 13:35:16;;;;;;;;;;;3.70;99.90;;;;;;6220808;23;19942;-89
2022/01/20 13:37:56;;;;;;;;;;;3.70;99.90;;;;;;6195215;23;20010;-90
2022/01/20 13:40:37;;;;;;;;;;;3.10;99.90;;;;;;6221100;23;19919;-91
2022/01/20 13:49:29;;;;;;;;;;;;;;;;;;;;;
2022/01/20 13:52:24;;;;;;;;;;;;;;;;;;;;;
2022/01/20 13:54:58;;;;;;;;;;;2.50;99.90;;;;;;6244160;23;19962;-90
2022/01/20 14:00:20;;;;;;;;;;;3.10;99.90;;;;;;6204028;23;19939;-93
2022/01/20 14:03:01;;;;;;;;;;;2.40;99.90;;;;;;6196120;23;19947;-90
2022/01/20 14:05:47;;;;;;;;;;;;;;;;;;;;;
2022/01/20 14:08:47;;;;;;;;;;;;;;;;;;;;;
2022/01/20 14:11:45;;;;;;;;;;;;;;;;;;;;;
2022/01/20 14:14:31;;;;;;;;;;;;;;;;;;;;;
2022/01/20 14:17:39;;;;;;;;;;;3.30;99.90;;;;;;6223970;23;19915;-92
2022/01/20 14:23:16;;;;;;;;;;;2.80;99.90;;;;;;6180409;23;20174;-90
2022/01/20 14:28:28;;;;;;;;;;;2.80;99.90;;;;;;6209061;23;19915;-89
2022/01/20 14:31:03;;;;;;;;;;;;;;;;;;;;;
2022/01/20 14:33:51;;;;;;;;;;;;;;;;;;;;;
2022/01/20 14:36:29;;;;;;;;;;;;;;;;;;;;;
2022/01/20 14:39:18;;;;;;;;;;;2.80;99.90;;;;;;6222892;23;20247;-90
2022/01/20 14:42:06;;;;;;;;;;;2.50;99.90;;;;;;6223074;23;19963;-91
2022/01/20 14:44:47;;;;;;;;;;;;;;;;;;;;;
2022/01/20 14:53:15;;;;;;;;;;;;;;;;;;;;;
2022/01/20 14:56:20;;;;;;;;;;;;;;;;;;;;;
2022/01/20 14:58:59;;;;;;;;;;;;;;;;;;;;;
2022/01/20 15:04:48;;;;;;;;;;;;;;;;;;;;;
2022/01/20 15:07:29;;;;;;;;;;;;;;;;;;;;;
2022/01/20 15:10:25;;;;;;;;;;;;;;;;;;;;;
2022/01/20 15:13:27;;;;;;;;;;;;;;;;;;;;;
2022/01/20 15:19:13;;;;;;;;;;;2.10;99.90;;;;;;6222971;23;19920;-92
2022/01/20 15:25:05;;;;;;;;;;;;;;;;;;;;;
2022/01/20 15:28:01;;;;;;;;;;;;;;;;;;;;;
2022/01/20 15:31:00;;;;;;;;;;;;;;;;;;;;;
2022/01/20 15:42:42;;;;;;;;;;;;;;;;;;;;;
2022/01/20 15:52:54;;;;;;;;;;;;;;;;;;;;;
2022/01/20 15:55:50;;;;;;;;;;;;;;;;;;;;;
2022/01/20 16:10:35;;;;;;;;;;;2.40;99.90;;;;;;6218860;23;19923;-92
2022/01/20 16:13:11;;;;;;;;;;;2.40;99.90;;;;;;6190201;23;19939;-90
2022/01/20 16:15:54;;;;;;;;;;;1.90;99.90;;;;;;6166025;23;20332;-91
2022/01/20 16:18:35;;;;;;;;;;;;;;;;;;;;;
2022/01/20 16:21:17;;;;;;;;;;;;;;;;;;;;;
2022/01/20 16:23:44;;;;;;;;;;;1.90;99.90;;;;;;6192540;23;19924;-90
2022/01/20 16:26:10;;;;;;;;;;;1.90;99.90;;;;;;6164649;23;19916;-90
2022/01/20 16:28:36;;;;;;;;;;;1.10;99.90;;;;;;6163979;23;19916;-91
2022/01/20 16:31:06;;;;;;;;;;;2.40;99.90;;;;;;6163405;23;19919;-90
2022/01/20 16:33:34;;;;;;;;;;;2.70;99.90;;;;;;6164331;23;19924;-90
2022/01/20 16:36:02;;;;;;;;;;;2.40;99.90;;;;;;6188209;23;19916;-90
2022/01/20 16:38:41;;;;;;;;;;;3.10;99.90;;;;;;6163466;23;19915;-90
2022/01/20 16:41:31;;;;;;;;;;;1.60;99.90;;;;;;6165672;23;20255;-90
2022/01/20 16:43:59;;;;;;;;;;;2.40;99.90;;;;;;6188551;23;20347;-90
2022/01/20 16:46:33;;;;;;;;;;;2.30;99.90;;;;;;6164772;23;19938;-90
2022/01/20 16:49:01;;;;;;;;;;;2.50;99.90;;;;;;6164813;23;19916;-91
2022/01/20 16:51:36;;;;;;;;;;;1.00;99.90;;;;;;6162511;23;20244;-89
2022/01/20 16:54:29;;;;;;;;;;;;;;;;;;;;;
2022/01/20 16:56:57;;;;;;;;;;;1.60;99.90;;;;;;6192506;23;20367;-90
2022/01/20 16:59:25;;;;;;;;;;;1.40;99.90;;;;;;6162673;23;19982;-90
2022/01/20 17:01:51;;;;;;;;;;;0.70;99.90;;;;;;6163483;23;19924;-89
2022/01/20 17:07:18;;;;;;;;;;;1.60;99.90;;;;;;6147752;23;19916;-90
2022/01/20 17:10:12;;;;;;;;;;;;;;;;;;;;;
2022/01/20 17:12:51;;;;;;;;;;;0.80;99.90;;;;;;6191173;23;19919;-90
2022/01/20 17:15:16;;;;;;;;;;;0.20;99.90;;;;;;6165902;23;19939;-90
2022/01/20 17:18:04;;;;;;;;;;;;;;;;;;;;;
2022/01/20 17:23:32;;;;;;;;;;;0.90;99.90;;;;;;6173805;23;19920;-90
2022/01/20 17:26:00;;;;;;;;;;;2.30;99.90;;;;;;6190855;23;19986;-90
2022/01/20 17:31:38;;;;;;;;;;;0.70;99.90;;;;;;6173904;23;19920;-89
2022/01/20 17:37:07;;;;;;;;;;;0.90;99.90;;;;;;6194603;23;20244;-90
2022/01/20 17:39:55;;;;;;;;;;;1.50;99.90;;;;;;6165569;23;19919;-89
2022/01/20 17:42:24;;;;;;;;;;;1.30;99.90;;;;;;6190235;23;19923;-89
2022/01/20 17:45:09;;;;;;;;;;;-0.20;99.90;;;;;;6191127;23;20345;-89
2022/01/20 17:47:37;;;;;;;;;;;1.30;99.90;;;;;;6189928;23;19939;-88
2022/01/20 17:50:06;;;;;;;;;;;1.40;99.90;;;;;;6165180;23;19926;-90
2022/01/20 17:52:42;;;;;;;;;;;1.10;99.90;;;;;;6165664;23;19916;-90
2022/01/20 17:55:11;;;;;;;;;;;0.90;99.90;;;;;;6166747;23;19916;-89
2022/01/20 17:57:41;;;;;;;;;;;1.00;99.90;;;;;;6165627;23;19923;-89
2022/01/20 18:00:10;;;;;;;;;;;0.40;99.90;;;;;;6165324;23;19922;-90
2022/01/20 18:02:45;;;;;;;;;;;1.20;99.90;;;;;;6164910;23;19927;-90
2022/01/20 18:05:24;;;;;;;;;;;;;;;;;;;;;
2022/01/20 18:07:54;;;;;;;;;;;1.30;99.90;;;;;;6192352;23;19920;-90
2022/01/20 18:10:22;;;;;;;;;;;0.70;99.90;;;;;;6165949;23;19923;-90
2022/01/20 18:12:55;;;;;;;;;;;1.60;99.90;;;;;;6165680;23;19915;-90
2022/01/20 18:15:23;;;;;;;;;;;2.00;99.90;;;;;;6166869;23;19916;-90
2022/01/20 18:17:58;;;;;;;;;;;1.90;99.90;;;;;;6165712;23;19971;-90
2022/01/20 18:20:36;;;;;;;;;;;1.70;99.90;;;;;;6165113;23;20276;-90
2022/01/20 18:23:21;;;;;;;;;;;1.10;99.90;;;;;;6166256;23;19951;-90
2022/01/20 18:25:57;;;;;;;;;;;;;;;;;;;;;
2022/01/20 18:28:31;;;;;;;;;;;1.80;99.90;;;;;;6191823;23;19920;-89
2022/01/20 18:31:06;;;;;;;;;;;1.10;99.90;;;;;;6165250;23;19915;-90
2022/01/20 18:33:37;;;;;;;;;;;1.60;99.90;;;;;;6189408;23;19924;-90
2022/01/20 18:36:13;;;;;;;;;;;1.50;99.90;;;;;;6165798;23;19927;-91
2022/01/20 18:38:42;;;;;;;;;;;1.50;99.90;;;;;;6191266;23;20310;-90
2022/01/20 18:41:10;;;;;;;;;;;1.30;99.90;;;;;;6165848;23;19923;-90
2022/01/20 18:43:36;;;;;;;;;;;1.30;99.90;;;;;;6190579;23;19920;-90
2022/01/20 18:46:11;;;;;;;;;;;;;;;;;;;;;
2022/01/20 18:48:47;;;;;;;;;;;;;;;;;;;;;
2022/01/20 18:51:23;;;;;;;;;;;;;;;;;;;;;
2022/01/20 18:53:54;;;;;;;;;;;1.40;99.90;;;;;;6191429;23;19916;-91
2022/01/20 18:56:22;;;;;;;;;;;2.00;99.90;;;;;;6189769;23;20272;-89
2022/01/20 18:58:52;;;;;;;;;;;4.90;99.90;;;;;;6165319;23;19916;-90
2022/01/20 19:01:26;;;;;;;;;;;1.40;99.90;;;;;;6165090;23;19920;-90
2022/01/20 19:03:56;;;;;;;;;;;2.30;99.90;;;;;;6164564;23;19927;-90
2022/01/20 19:06:31;;;;;;;;;;;2.90;99.90;;;;;;6165139;23;19967;-90
2022/01/20 19:09:06;;;;;;;;;;;3.40;99.90;;;;;;6166105;23;19920;-90
2022/01/20 19:11:44;;;;;;;;;;;;;;;;;;;;;
2022/01/20 19:14:11;;;;;;;;;;;2.50;99.90;;;;;;6191324;23;19924;-90
2022/01/20 19:16:46;;;;;;;;;;;;;;;;;;;;;
2022/01/20 19:19:32;;;;;;;;;;;1.70;99.90;;;;;;6191292;23;19915;-89
2022/01/20 19:22:05;;;;;;;;;;;2.20;99.90;;;;;;6188303;23;19970;-89
2022/01/20 19:24:43;;;;;;;;;;;;;;;;;;;;;
2022/01/20 19:27:24;;;;;;;;;;;1.50;99.90;;;;;;6190965;23;19974;-89
2022/01/20 19:29:58;;;;;;;;;;;1.00;99.90;;;;;;6165720;23;19971;-90
2022/01/20 19:32:36;;;;;;;;;;;;;;;;;;;;;
2022/01/20 19:35:05;;;;;;;;;;;1.00;99.90;;;;;;6192242;23;20325;-90
2022/01/20 19:37:36;;;;;;;;;;;2.70;99.90;;;;;;6164666;23;19916;-91
2022/01/20 19:40:11;;;;;;;;;;;0.90;99.90;;;;;;6164901;23;19978;-90
2022/01/20 19:42:39;;;;;;;;;;;0.90;99.90;;;;;;6166040;23;20320;-89
2022/01/20 19:45:16;;;;;;;;;;;;;;;;;;;;;
2022/01/20 19:47:44;;;;;;;;;;;0.70;99.90;;;;;;6191337;23;19985;-90
2022/01/20 19:50:11;;;;;;;;;;;0.60;99.90;;;;;;6164567;23;19956;-90
2022/01/20 19:52:39;;;;;;;;;;;0.40;99.90;;;;;;6164563;23;19923;-91
2022/01/20 19:55:17;;;;;;;;;;;0.50;99.90;;;;;;6164442;23;19923;-89
2022/01/20 19:58:08;;;;;;;;;;;0.40;99.90;;;;;;6164839;23;20341;-91
2022/01/20 20:00:50;;;;;;;;;;;0.30;99.90;;;;;;6188749;23;20321;-90
2022/01/20 20:03:16;;;;;;;;;;;0.60;99.90;;;;;;6165628;23;19927;-90
2022/01/20 20:06:01;;;;;;;;;;;;;;;;;;;;;
2022/01/20 20:08:29;;;;;;;;;;;2.10;99.90;;;;;;6190968;23;19916;-89
2022/01/20 20:11:03;;;;;;;;;;;0.90;99.90;;;;;;6164479;23;19922;-91
2022/01/20 20:13:29;;;;;;;;;;;1.50;99.90;;;;;;6166119;23;19926;-90
2022/01/20 20:16:25;;;;;;;;;;;;;;;;;;;;;
2022/01/20 20:18:58;;;;;;;;;;;1.20;99.90;;;;;;6213826;23;19916;-90
2022/01/20 20:21:36;;;;;;;;;;;;;;;;;;;;;
2022/01/20 20:24:25;;;;;;;;;;;1.20;99.90;;;;;;6191274;23;20333;-91
2022/01/20 20:26:56;;;;;;;;;;;1.10;99.90;;;;;;6164923;23;19926;-90
2022/01/20 20:29:44;;;;;;;;;;;0.70;99.90;;;;;;6164422;23;20333;-90
2022/01/20 20:32:43;;;;;;;;;;;;;;;;;;;;;
2022/01/20 20:34:58;;;;;;;;;;;1.90;99.90;;;;;;6185223;23;19916;-91
2022/01/20 20:37:51;;;;;;;;;;;1.30;99.90;;;;;;6163943;23;19923;-91
2022/01/20 20:43:15;;;;;;;;;;;-1.00;99.90;;;;;;6192208;23;19915;-90
2022/01/20 20:45:43;;;;;;;;;;;0.50;99.90;;;;;;6164574;23;19924;-90
2022/01/20 20:48:18;;;;;;;;;;;;;;;;;;;;;
2022/01/20 20:50:47;;;;;;;;;;;0.50;99.90;;;;;;6191165;23;19963;-90